createdAt,value
2019-03-08T00:08:29.180Z,98018.00
2019-03-08T00:19:10.213Z,98024.00
2019-03-08T00:29:52.481Z,98006.00
2019-03-08T00:40:33.338Z,98012.00
2019-03-08T00:51:17.923Z,98016.00
2019-03-08T01:02:02.928Z,98060.00
2019-03-08T01:12:45.894Z,98060.00
2019-03-08T01:23:26.969Z,98066.00
2019-03-08T01:34:09.609Z,98076.00
2019-03-08T01:44:51.804Z,98090.00
2019-03-08T01:55:32.696Z,98091.00
2019-03-08T02:06:16.538Z,98088.00
2019-03-08T02:17:00.528Z,98107.00
2019-03-08T02:27:43.985Z,98120.00
2019-03-08T02:38:27.500Z,98121.00
2019-03-08T02:49:07.778Z,98112.00
2019-03-08T02:59:52.349Z,98119.00
2019-03-08T03:10:35.699Z,98130.00
2019-03-08T03:21:20.655Z,98128.00
2019-03-08T03:32:03.925Z,98145.00
2019-03-08T03:42:46.383Z,98163.00
2019-03-08T03:53:27.167Z,98160.00
2019-03-08T04:04:10.742Z,98179.00
2019-03-08T04:14:46.508Z,98180.00
2019-03-08T04:25:30.125Z,98204.00
2019-03-08T04:36:13.484Z,98212.00
2019-03-08T04:46:57.206Z,98237.00
2019-03-08T04:57:41.622Z,98263.00
2019-03-08T05:08:24.747Z,98287.00
2019-03-08T05:19:06.776Z,98304.00
2019-03-08T05:29:49.362Z,98323.00
2019-03-08T05:40:27.400Z,98337.00
2019-03-08T05:51:11.780Z,98363.00
2019-03-08T06:01:54.905Z,98400.00
2019-03-08T06:12:36.102Z,98438.00
2019-03-08T06:23:19.918Z,98562.00
2019-03-08T06:33:56.848Z,98771.00
2019-03-08T06:44:36.515Z,98872.00
2019-03-08T06:55:18.953Z,98872.00
2019-03-08T07:06:03.307Z,98848.00
2019-03-08T07:16:43.472Z,98851.00
2019-03-08T07:27:28.599Z,98854.00
2019-03-08T07:38:11.984Z,98872.00
2019-03-08T07:48:53.615Z,98889.00
2019-03-08T07:59:31.856Z,98919.00
2019-03-08T08:10:13.280Z,98967.00
2019-03-08T08:20:51.806Z,99027.00
2019-03-08T08:31:35.353Z,99017.00
2019-03-08T08:42:11.625Z,98979.00
2019-03-08T08:52:53.490Z,98958.00
2019-03-08T09:03:32.654Z,98924.00
2019-03-08T09:14:10.655Z,98928.00
2019-03-08T09:24:46.528Z,98926.00
2019-03-08T09:35:26.578Z,98905.00
2019-03-08T09:46:12.211Z,98925.00
2019-03-08T09:56:46.192Z,98962.00
2019-03-08T10:07:25.992Z,98974.00
2019-03-08T10:18:08.223Z,98998.00
2019-03-08T10:28:45.148Z,98984.00
2019-03-08T10:39:27.936Z,98881.00
2019-03-08T10:50:07.473Z,98828.00
2019-03-08T11:00:48.739Z,98731.00
2019-03-08T11:11:29.000Z,98733.00
2019-03-08T11:22:08.933Z,98729.00
2019-03-08T11:32:39.492Z,98775.00
2019-03-08T11:43:15.632Z,98803.00
2019-03-08T11:53:56.218Z,98827.00
2019-03-08T12:04:22.318Z,98782.00
2019-03-08T12:15:02.641Z,98696.00
2019-03-08T20:07:13.085Z,99133.00
2019-03-08T20:17:56.364Z,99121.00
2019-03-08T20:28:37.871Z,99098.00
2019-03-08T20:39:18.687Z,99075.00
2019-03-08T20:50:01.921Z,99055.00
2019-03-08T21:00:43.103Z,99047.00
2019-03-08T21:11:27.536Z,99020.00
2019-03-08T21:22:12.135Z,98999.00
2019-03-08T21:32:46.611Z,98984.00
2019-03-08T21:43:28.366Z,98955.00
2019-03-08T21:54:03.454Z,98923.00
2019-03-08T22:04:40.110Z,98908.00
2019-03-08T22:15:12.276Z,98897.00
2019-03-08T22:25:47.426Z,98874.00
2019-03-08T22:36:27.255Z,98870.00
2019-03-08T22:47:01.603Z,98842.00
2019-03-08T22:57:43.792Z,98805.00
2019-03-08T23:08:26.883Z,98783.00
2019-03-08T23:19:07.887Z,98757.00
2019-03-08T23:29:51.808Z,98727.00
2019-03-08T23:40:34.550Z,98705.00
2019-03-08T23:51:18.619Z,98680.00
